sensor_id;sensor_type;location;lat;lon;timestamp;temperature;humidity
80676;SHT30;70041;46.088;18.268;2023-05-10T00:01:02;9.86;78.93
80676;SHT30;70041;46.088;18.268;2023-05-10T00:03:27;9.83;78.94
80676;SHT30;70041;46.088;18.268;2023-05-10T00:05:53;9.85;78.95
80676;SHT30;70041;46.088;18.268;2023-05-10T00:08:18;9.89;79.03
80676;SHT30;70041;46.088;18.268;2023-05-10T00:10:44;9.98;78.99
80676;SHT30;70041;46.088;18.268;2023-05-10T00:13:09;9.90;78.81
80676;SHT30;70041;46.088;18.268;2023-05-10T00:15:35;9.85;78.52
80676;SHT30;70041;46.088;18.268;2023-05-10T00:18:00;9.82;79.19
80676;SHT30;70041;46.088;18.268;2023-05-10T00:20:26;9.82;79.19
80676;SHT30;70041;46.088;18.268;2023-05-10T00:22:51;9.74;79.24
80676;SHT30;70041;46.088;18.268;2023-05-10T00:25:17;9.75;79.05
80676;SHT30;70041;46.088;18.268;2023-05-10T00:27:42;9.72;79.24
80676;SHT30;70041;46.088;18.268;2023-05-10T00:30:08;9.69;79.07
80676;SHT30;70041;46.088;18.268;2023-05-10T00:32:33;9.74;78.83
80676;SHT30;70041;46.088;18.268;2023-05-10T00:34:59;9.75;79.17
80676;SHT30;70041;46.088;18.268;2023-05-10T00:37:24;9.77;78.96
80676;SHT30;70041;46.088;18.268;2023-05-10T00:39:50;9.72;79.36
80676;SHT30;70041;46.088;18.268;2023-05-10T00:42:15;9.77;79.17
80676;SHT30;70041;46.088;18.268;2023-05-10T00:44:40;9.78;78.61
80676;SHT30;70041;46.088;18.268;2023-05-10T00:47:06;9.77;79.29
80676;SHT30;70041;46.088;18.268;2023-05-10T00:49:32;9.78;79.05
80676;SHT30;70041;46.088;18.268;2023-05-10T00:51:58;9.74;79.28
80676;SHT30;70041;46.088;18.268;2023-05-10T00:54:23;9.68;79.18
80676;SHT30;70041;46.088;18.268;2023-05-10T00:56:49;9.57;79.85
80676;SHT30;70041;46.088;18.268;2023-05-10T00:59:18;9.58;79.17
80676;SHT30;70041;46.088;18.268;2023-05-10T01:01:44;9.49;78.31
80676;SHT30;70041;46.088;18.268;2023-05-10T01:04:11;9.44;78.05
80676;SHT30;70041;46.088;18.268;2023-05-10T01:06:38;9.31;78.64
80676;SHT30;70041;46.088;18.268;2023-05-10T01:09:03;9.28;79.20
80676;SHT30;70041;46.088;18.268;2023-05-10T01:11:29;9.30;79.58
80676;SHT30;70041;46.088;18.268;2023-05-10T01:13:56;9.28;78.90
80676;SHT30;70041;46.088;18.268;2023-05-10T01:16:22;9.32;78.06
80676;SHT30;70041;46.088;18.268;2023-05-10T01:18:49;9.24;78.79
80676;SHT30;70041;46.088;18.268;2023-05-10T01:27:30;9.13;80.27
80676;SHT30;70041;46.088;18.268;2023-05-10T01:32:51;9.23;80.03
80676;SHT30;70041;46.088;18.268;2023-05-10T01:35:36;9.28;79.83
80676;SHT30;70041;46.088;18.268;2023-05-10T01:38:38;9.26;79.83
80676;SHT30;70041;46.088;18.268;2023-05-10T01:41:28;9.26;79.79
80676;SHT30;70041;46.088;18.268;2023-05-10T01:46:41;9.30;79.58
80676;SHT30;70041;46.088;18.268;2023-05-10T01:49:24;9.17;80.41
80676;SHT30;70041;46.088;18.268;2023-05-10T01:51:53;9.20;80.02
80676;SHT30;70041;46.088;18.268;2023-05-10T01:54:23;9.17;80.28
80676;SHT30;70041;46.088;18.268;2023-05-10T01:56:55;9.07;80.55
80676;SHT30;70041;46.088;18.268;2023-05-10T01:59:21;9.03;80.67
80676;SHT30;70041;46.088;18.268;2023-05-10T02:01:48;8.99;81.02
80676;SHT30;70041;46.088;18.268;2023-05-10T02:04:16;8.91;80.26
80676;SHT30;70041;46.088;18.268;2023-05-10T02:06:43;8.90;80.03
80676;SHT30;70041;46.088;18.268;2023-05-10T02:09:11;8.83;80.17
80676;SHT30;70041;46.088;18.268;2023-05-10T02:11:38;8.83;80.09
80676;SHT30;70041;46.088;18.268;2023-05-10T02:14:07;8.86;80.27
80676;SHT30;70041;46.088;18.268;2023-05-10T02:16:35;8.84;80.41
80676;SHT30;70041;46.088;18.268;2023-05-10T02:19:01;8.83;80.80
80676;SHT30;70041;46.088;18.268;2023-05-10T02:21:28;8.84;81.15
80676;SHT30;70041;46.088;18.268;2023-05-10T02:23:55;8.87;80.97
80676;SHT30;70041;46.088;18.268;2023-05-10T02:26:21;8.94;80.61
80676;SHT30;70041;46.088;18.268;2023-05-10T02:28:49;8.99;80.45
80676;SHT30;70041;46.088;18.268;2023-05-10T02:31:15;8.93;80.65
80676;SHT30;70041;46.088;18.268;2023-05-10T02:33:42;8.83;80.81
80676;SHT30;70041;46.088;18.268;2023-05-10T02:36:09;8.90;80.47
80676;SHT30;70041;46.088;18.268;2023-05-10T02:38:36;8.80;80.92
80676;SHT30;70041;46.088;18.268;2023-05-10T02:41:03;8.79;80.85
80676;SHT30;70041;46.088;18.268;2023-05-10T02:43:32;8.76;81.42
80676;SHT30;70041;46.088;18.268;2023-05-10T02:45:58;8.70;81.01
80676;SHT30;70041;46.088;18.268;2023-05-10T02:48:23;8.62;81.43
80676;SHT30;70041;46.088;18.268;2023-05-10T02:50:50;8.62;81.36
80676;SHT30;70041;46.088;18.268;2023-05-10T02:53:23;8.75;81.15
80676;SHT30;70041;46.088;18.268;2023-05-10T02:55:50;8.76;81.00
80676;SHT30;70041;46.088;18.268;2023-05-10T02:58:16;8.79;80.88
80676;SHT30;70041;46.088;18.268;2023-05-10T03:00:44;8.66;81.34
80676;SHT30;70041;46.088;18.268;2023-05-10T03:03:10;8.66;81.28
80676;SHT30;70041;46.088;18.268;2023-05-10T03:05:36;8.52;82.04
80676;SHT30;70041;46.088;18.268;2023-05-10T03:08:01;8.53;81.86
80676;SHT30;70041;46.088;18.268;2023-05-10T03:10:30;8.62;81.80
80676;SHT30;70041;46.088;18.268;2023-05-10T03:13:36;8.59;81.71
80676;SHT30;70041;46.088;18.268;2023-05-10T03:16:11;8.60;81.90
80676;SHT30;70041;46.088;18.268;2023-05-10T03:18:49;8.57;82.12
80676;SHT30;70041;46.088;18.268;2023-05-10T03:21:18;8.57;81.89
80676;SHT30;70041;46.088;18.268;2023-05-10T03:23:57;8.56;81.99
80676;SHT30;70041;46.088;18.268;2023-05-10T03:26:25;8.55;82.08
80676;SHT30;70041;46.088;18.268;2023-05-10T03:28:52;8.53;81.90
80676;SHT30;70041;46.088;18.268;2023-05-10T03:31:18;8.49;82.23
80676;SHT30;70041;46.088;18.268;2023-05-10T03:33:51;8.50;82.46
80676;SHT30;70041;46.088;18.268;2023-05-10T03:36:17;8.53;81.95
80676;SHT30;70041;46.088;18.268;2023-05-10T03:38:43;8.50;82.09
80676;SHT30;70041;46.088;18.268;2023-05-10T03:41:08;8.55;82.33
80676;SHT30;70041;46.088;18.268;2023-05-10T03:43:33;8.56;82.41
80676;SHT30;70041;46.088;18.268;2023-05-10T03:46:02;8.52;82.40
80676;SHT30;70041;46.088;18.268;2023-05-10T03:48:27;8.60;82.33
80676;SHT30;70041;46.088;18.268;2023-05-10T03:50:52;8.66;82.06
80676;SHT30;70041;46.088;18.268;2023-05-10T03:53:18;8.69;82.03
80676;SHT30;70041;46.088;18.268;2023-05-10T03:55:43;8.69;82.12
80676;SHT30;70041;46.088;18.268;2023-05-10T03:58:12;8.73;82.00
80676;SHT30;70041;46.088;18.268;2023-05-10T04:00:38;8.79;81.86
80676;SHT30;70041;46.088;18.268;2023-05-10T04:03:09;8.73;82.39
80676;SHT30;70041;46.088;18.268;2023-05-10T04:05:34;8.69;82.24
80676;SHT30;70041;46.088;18.268;2023-05-10T04:08:00;8.73;82.37
80676;SHT30;70041;46.088;18.268;2023-05-10T04:10:25;8.73;82.46
80676;SHT30;70041;46.088;18.268;2023-05-10T04:12:51;8.72;82.52
80676;SHT30;70041;46.088;18.268;2023-05-10T04:15:16;8.84;81.90
80676;SHT30;70041;46.088;18.268;2023-05-10T04:17:41;8.84;82.60
80676;SHT30;70041;46.088;18.268;2023-05-10T04:20:07;8.81;82.89
80676;SHT30;70041;46.088;18.268;2023-05-10T04:22:33;8.87;83.03
80676;SHT30;70041;46.088;18.268;2023-05-10T04:24:58;8.80;82.97
80676;SHT30;70041;46.088;18.268;2023-05-10T04:27:24;8.90;82.69
80676;SHT30;70041;46.088;18.268;2023-05-10T04:29:49;8.87;82.72
80676;SHT30;70041;46.088;18.268;2023-05-10T04:32:15;8.84;83.09
80676;SHT30;70041;46.088;18.268;2023-05-10T04:34:42;8.93;83.29
80676;SHT30;70041;46.088;18.268;2023-05-10T04:37:08;8.90;83.21
80676;SHT30;70041;46.088;18.268;2023-05-10T04:39:33;9.04;82.54
80676;SHT30;70041;46.088;18.268;2023-05-10T04:42:00;9.04;82.94
80676;SHT30;70041;46.088;18.268;2023-05-10T04:44:26;9.11;82.77
80676;SHT30;70041;46.088;18.268;2023-05-10T04:46:51;9.20;82.54
80676;SHT30;70041;46.088;18.268;2023-05-10T04:49:16;9.28;82.38
80676;SHT30;70041;46.088;18.268;2023-05-10T04:51:43;9.30;82.60
80676;SHT30;70041;46.088;18.268;2023-05-10T04:54:08;9.34;82.72
80676;SHT30;70041;46.088;18.268;2023-05-10T04:56:34;9.42;82.62
80676;SHT30;70041;46.088;18.268;2023-05-10T04:58:59;9.52;82.21
80676;SHT30;70041;46.088;18.268;2023-05-10T05:01:25;9.57;82.35
80676;SHT30;70041;46.088;18.268;2023-05-10T05:03:50;9.59;82.03
80676;SHT30;70041;46.088;18.268;2023-05-10T05:06:18;9.68;82.30
80676;SHT30;70041;46.088;18.268;2023-05-10T05:08:43;9.72;82.11
80676;SHT30;70041;46.088;18.268;2023-05-10T05:11:08;9.85;80.73
80676;SHT30;70041;46.088;18.268;2023-05-10T05:13:34;9.96;80.53
80676;SHT30;70041;46.088;18.268;2023-05-10T05:16:01;9.95;80.82
80676;SHT30;70041;46.088;18.268;2023-05-10T05:18:26;9.98;80.80
80676;SHT30;70041;46.088;18.268;2023-05-10T05:20:52;9.98;81.34
80676;SHT30;70041;46.088;18.268;2023-05-10T05:23:17;10.17;80.60
80676;SHT30;70041;46.088;18.268;2023-05-10T05:25:43;10.26;80.16
80676;SHT30;70041;46.088;18.268;2023-05-10T05:28:09;10.34;79.26
80676;SHT30;70041;46.088;18.268;2023-05-10T05:30:34;10.53;79.42
80676;SHT30;70041;46.088;18.268;2023-05-10T05:33:00;10.56;78.97
80676;SHT30;70041;46.088;18.268;2023-05-10T05:35:26;10.70;78.81
80676;SHT30;70041;46.088;18.268;2023-05-10T05:37:51;10.81;78.71
80676;SHT30;70041;46.088;18.268;2023-05-10T05:40:17;10.77;78.24
80676;SHT30;70041;46.088;18.268;2023-05-10T05:42:42;10.83;78.83
80676;SHT30;70041;46.088;18.268;2023-05-10T05:45:08;10.90;78.33
80676;SHT30;70041;46.088;18.268;2023-05-10T05:47:34;10.97;78.77
80676;SHT30;70041;46.088;18.268;2023-05-10T05:49:59;11.10;78.07
80676;SHT30;70041;46.088;18.268;2023-05-10T05:52:25;11.22;77.23
80676;SHT30;70041;46.088;18.268;2023-05-10T05:54:50;11.24;76.70
80676;SHT30;70041;46.088;18.268;2023-05-10T05:57:16;11.32;76.83
80676;SHT30;70041;46.088;18.268;2023-05-10T05:59:41;11.38;76.80
80676;SHT30;70041;46.088;18.268;2023-05-10T06:02:09;11.43;76.58
80676;SHT30;70041;46.088;18.268;2023-05-10T06:04:35;11.47;76.68
80676;SHT30;70041;46.088;18.268;2023-05-10T06:07:00;11.62;75.72
80676;SHT30;70041;46.088;18.268;2023-05-10T06:09:26;11.62;75.64
80676;SHT30;70041;46.088;18.268;2023-05-10T06:11:51;11.72;76.02
80676;SHT30;70041;46.088;18.268;2023-05-10T06:14:17;11.83;76.22
80676;SHT30;70041;46.088;18.268;2023-05-10T06:16:42;11.93;75.45
80676;SHT30;70041;46.088;18.268;2023-05-10T06:19:08;12.06;74.72
80676;SHT30;70041;46.088;18.268;2023-05-10T06:21:33;12.13;74.32
80676;SHT30;70041;46.088;18.268;2023-05-10T06:23:58;12.26;73.68
80676;SHT30;70041;46.088;18.268;2023-05-10T06:26:24;12.27;73.69
80676;SHT30;70041;46.088;18.268;2023-05-10T06:28:50;12.36;74.58
80676;SHT30;70041;46.088;18.268;2023-05-10T06:31:15;12.48;72.59
80676;SHT30;70041;46.088;18.268;2023-05-10T06:33:41;12.52;73.72
80676;SHT30;70041;46.088;18.268;2023-05-10T06:36:06;12.64;72.29
80676;SHT30;70041;46.088;18.268;2023-05-10T06:38:32;12.71;73.39
80676;SHT30;70041;46.088;18.268;2023-05-10T06:40:57;12.82;71.62
80676;SHT30;70041;46.088;18.268;2023-05-10T06:43:22;12.86;72.47
80676;SHT30;70041;46.088;18.268;2023-05-10T06:45:49;12.86;73.18
80676;SHT30;70041;46.088;18.268;2023-05-10T06:48:14;12.95;71.34
80676;SHT30;70041;46.088;18.268;2023-05-10T06:50:40;13.00;71.07
80676;SHT30;70041;46.088;18.268;2023-05-10T06:53:05;13.15;71.42
80676;SHT30;70041;46.088;18.268;2023-05-10T06:55:31;13.18;69.67
80676;SHT30;70041;46.088;18.268;2023-05-10T06:57:56;13.29;70.66
80676;SHT30;70041;46.088;18.268;2023-05-10T07:00:22;13.42;68.80
80676;SHT30;70041;46.088;18.268;2023-05-10T07:02:47;13.51;68.68
80676;SHT30;70041;46.088;18.268;2023-05-10T07:05:13;13.64;70.09
80676;SHT30;70041;46.088;18.268;2023-05-10T07:07:39;13.88;68.57
80676;SHT30;70041;46.088;18.268;2023-05-10T07:10:05;14.01;67.23
80676;SHT30;70041;46.088;18.268;2023-05-10T07:12:30;14.15;68.82
80676;SHT30;70041;46.088;18.268;2023-05-10T07:14:56;14.22;66.13
80676;SHT30;70041;46.088;18.268;2023-05-10T07:17:21;14.15;67.09
80676;SHT30;70041;46.088;18.268;2023-05-10T07:19:47;14.10;67.91
80676;SHT30;70041;46.088;18.268;2023-05-10T07:22:12;14.08;66.46
80676;SHT30;70041;46.088;18.268;2023-05-10T07:24:38;14.20;67.27
80676;SHT30;70041;46.088;18.268;2023-05-10T07:27:03;14.41;67.91
80676;SHT30;70041;46.088;18.268;2023-05-10T07:29:29;14.63;67.05
80676;SHT30;70041;46.088;18.268;2023-05-10T07:31:55;14.68;66.17
80676;SHT30;70041;46.088;18.268;2023-05-10T07:34:20;14.66;66.23
80676;SHT30;70041;46.088;18.268;2023-05-10T07:36:46;14.92;66.31
80676;SHT30;70041;46.088;18.268;2023-05-10T07:39:11;14.86;64.49
80676;SHT30;70041;46.088;18.268;2023-05-10T07:41:37;14.53;65.13
80676;SHT30;70041;46.088;18.268;2023-05-10T07:44:04;14.65;66.09
80676;SHT30;70041;46.088;18.268;2023-05-10T07:46:29;14.71;65.39
80676;SHT30;70041;46.088;18.268;2023-05-10T07:48:55;14.82;65.06
80676;SHT30;70041;46.088;18.268;2023-05-10T07:51:20;14.97;66.29
80676;SHT30;70041;46.088;18.268;2023-05-10T07:53:46;15.06;65.43
80676;SHT30;70041;46.088;18.268;2023-05-10T07:56:32;15.10;63.92
80676;SHT30;70041;46.088;18.268;2023-05-10T07:59:01;15.31;64.91
80676;SHT30;70041;46.088;18.268;2023-05-10T08:01:30;15.43;65.30
80676;SHT30;70041;46.088;18.268;2023-05-10T08:03:57;15.35;64.50
80676;SHT30;70041;46.088;18.268;2023-05-10T08:06:22;15.35;64.61
80676;SHT30;70041;46.088;18.268;2023-05-10T08:08:48;15.53;64.21
80676;SHT30;70041;46.088;18.268;2023-05-10T08:11:16;15.72;65.11
80676;SHT30;70041;46.088;18.268;2023-05-10T08:13:42;15.79;63.50
80676;SHT30;70041;46.088;18.268;2023-05-10T08:16:08;15.82;62.39
80676;SHT30;70041;46.088;18.268;2023-05-10T08:18:33;15.88;61.96
80676;SHT30;70041;46.088;18.268;2023-05-10T08:20:59;16.04;64.57
80676;SHT30;70041;46.088;18.268;2023-05-10T08:23:24;16.09;62.35
80676;SHT30;70041;46.088;18.268;2023-05-10T08:25:49;16.36;62.51
80676;SHT30;70041;46.088;18.268;2023-05-10T08:28:15;16.46;61.90
80676;SHT30;70041;46.088;18.268;2023-05-10T08:30:40;16.32;61.64
80676;SHT30;70041;46.088;18.268;2023-05-10T08:33:06;16.46;63.25
80676;SHT30;70041;46.088;18.268;2023-05-10T08:35:31;16.57;61.69
80676;SHT30;70041;46.088;18.268;2023-05-10T08:37:58;16.90;62.38
80676;SHT30;70041;46.088;18.268;2023-05-10T08:40:24;17.08;61.06
80676;SHT30;70041;46.088;18.268;2023-05-10T08:42:56;16.77;60.46
80676;SHT30;70041;46.088;18.268;2023-05-10T08:45:24;16.64;60.18
80676;SHT30;70041;46.088;18.268;2023-05-10T08:47:51;16.73;59.67
80676;SHT30;70041;46.088;18.268;2023-05-10T08:50:20;16.61;58.89
80676;SHT30;70041;46.088;18.268;2023-05-10T08:52:47;16.80;60.98
80676;SHT30;70041;46.088;18.268;2023-05-10T08:55:15;17.06;61.10
80676;SHT30;70041;46.088;18.268;2023-05-10T08:57:41;17.42;60.30
80676;SHT30;70041;46.088;18.268;2023-05-10T09:00:07;17.61;59.32
80676;SHT30;70041;46.088;18.268;2023-05-10T09:02:33;17.87;58.73
80676;SHT30;70041;46.088;18.268;2023-05-10T09:04:59;17.86;58.05
80676;SHT30;70041;46.088;18.268;2023-05-10T09:07:25;17.68;57.65
80676;SHT30;70041;46.088;18.268;2023-05-10T09:09:51;17.41;59.10
80676;SHT30;70041;46.088;18.268;2023-05-10T09:12:17;17.75;59.96
80676;SHT30;70041;46.088;18.268;2023-05-10T09:14:43;17.99;57.58
80676;SHT30;70041;46.088;18.268;2023-05-10T09:17:09;18.02;56.31
80676;SHT30;70041;46.088;18.268;2023-05-10T09:19:35;17.96;55.04
80676;SHT30;70041;46.088;18.268;2023-05-10T09:22:00;18.16;56.69
80676;SHT30;70041;46.088;18.268;2023-05-10T09:24:29;18.07;55.64
80676;SHT30;70041;46.088;18.268;2023-05-10T09:26:56;17.83;55.36
80676;SHT30;70041;46.088;18.268;2023-05-10T09:29:22;17.99;55.03
80676;SHT30;70041;46.088;18.268;2023-05-10T09:31:51;17.82;54.97
80676;SHT30;70041;46.088;18.268;2023-05-10T09:34:31;17.66;55.23
80676;SHT30;70041;46.088;18.268;2023-05-10T09:36:59;17.42;55.86
80676;SHT30;70041;46.088;18.268;2023-05-10T09:39:32;17.12;55.69
80676;SHT30;70041;46.088;18.268;2023-05-10T09:41:58;17.24;56.29
80676;SHT30;70041;46.088;18.268;2023-05-10T09:44:25;17.61;55.92
80676;SHT30;70041;46.088;18.268;2023-05-10T09:46:51;17.82;56.85
80676;SHT30;70041;46.088;18.268;2023-05-10T09:49:18;17.96;53.71
80676;SHT30;70041;46.088;18.268;2023-05-10T09:51:45;17.90;53.31
80676;SHT30;70041;46.088;18.268;2023-05-10T09:54:15;18.23;53.88
80676;SHT30;70041;46.088;18.268;2023-05-10T09:56:41;18.45;55.19
80676;SHT30;70041;46.088;18.268;2023-05-10T09:59:11;18.67;53.46
80676;SHT30;70041;46.088;18.268;2023-05-10T10:01:38;18.57;53.87
80676;SHT30;70041;46.088;18.268;2023-05-10T10:04:05;18.12;54.39
80676;SHT30;70041;46.088;18.268;2023-05-10T10:06:38;18.02;53.96
80676;SHT30;70041;46.088;18.268;2023-05-10T10:09:05;18.40;57.12
80676;SHT30;70041;46.088;18.268;2023-05-10T10:11:34;19.09;54.60
80676;SHT30;70041;46.088;18.268;2023-05-10T10:13:59;19.04;51.99
80676;SHT30;70041;46.088;18.268;2023-05-10T10:16:27;18.94;53.03
80676;SHT30;70041;46.088;18.268;2023-05-10T10:18:52;19.52;53.14
80676;SHT30;70041;46.088;18.268;2023-05-10T10:21:18;19.84;54.53
80676;SHT30;70041;46.088;18.268;2023-05-10T10:23:43;19.50;50.89
80676;SHT30;70041;46.088;18.268;2023-05-10T10:26:10;19.60;51.47
80676;SHT30;70041;46.088;18.268;2023-05-10T10:31:24;20.32;50.01
80676;SHT30;70041;46.088;18.268;2023-05-10T10:34:06;21.06;48.23
80676;SHT30;70041;46.088;18.268;2023-05-10T10:36:39;21.13;45.89
80676;SHT30;70041;46.088;18.268;2023-05-10T10:39:09;21.37;45.33
80676;SHT30;70041;46.088;18.268;2023-05-10T10:41:53;20.35;45.51
80676;SHT30;70041;46.088;18.268;2023-05-10T10:52:25;21.13;45.34
80676;SHT30;70041;46.088;18.268;2023-05-10T10:54:59;21.97;42.95
80676;SHT30;70041;46.088;18.268;2023-05-10T10:57:25;21.90;43.01
80676;SHT30;70041;46.088;18.268;2023-05-10T11:02:43;20.13;44.68
80676;SHT30;70041;46.088;18.268;2023-05-10T11:05:43;20.99;43.99
80676;SHT30;70041;46.088;18.268;2023-05-10T11:10:36;22.19;42.88
80676;SHT30;70041;46.088;18.268;2023-05-10T11:13:03;21.13;44.79
80676;SHT30;70041;46.088;18.268;2023-05-10T11:15:37;20.80;45.54
80676;SHT30;70041;46.088;18.268;2023-05-10T11:18:28;20.71;43.92
80676;SHT30;70041;46.088;18.268;2023-05-10T11:20:58;20.55;47.93
80676;SHT30;70041;46.088;18.268;2023-05-10T11:23:51;21.04;47.12
80676;SHT30;70041;46.088;18.268;2023-05-10T11:26:18;21.10;45.41
80676;SHT30;70041;46.088;18.268;2023-05-10T11:31:09;20.98;45.22
80676;SHT30;70041;46.088;18.268;2023-05-10T11:36:21;20.86;46.85
80676;SHT30;70041;46.088;18.268;2023-05-10T11:38:47;21.23;45.10
80676;SHT30;70041;46.088;18.268;2023-05-10T11:41:14;21.33;45.70
80676;SHT30;70041;46.088;18.268;2023-05-10T11:43:41;21.64;46.50
80676;SHT30;70041;46.088;18.268;2023-05-10T11:46:08;22.06;43.72
80676;SHT30;70041;46.088;18.268;2023-05-10T11:48:34;21.47;45.34
80676;SHT30;70041;46.088;18.268;2023-05-10T11:51:01;21.29;44.66
80676;SHT30;70041;46.088;18.268;2023-05-10T11:53:28;21.82;45.75
80676;SHT30;70041;46.088;18.268;2023-05-10T11:55:54;21.46;44.06
80676;SHT30;70041;46.088;18.268;2023-05-10T11:58:19;21.91;43.87
80676;SHT30;70041;46.088;18.268;2023-05-10T12:00:49;21.74;42.27
80676;SHT30;70041;46.088;18.268;2023-05-10T12:03:15;21.43;42.46
80676;SHT30;70041;46.088;18.268;2023-05-10T12:05:41;21.16;43.91
80676;SHT30;70041;46.088;18.268;2023-05-10T12:08:20;20.75;44.28
80676;SHT30;70041;46.088;18.268;2023-05-10T12:10:46;20.39;46.86
80676;SHT30;70041;46.088;18.268;2023-05-10T12:13:12;20.82;46.69
80676;SHT30;70041;46.088;18.268;2023-05-10T12:15:39;21.49;43.94
80676;SHT30;70041;46.088;18.268;2023-05-10T12:18:05;21.82;42.67
80676;SHT30;70041;46.088;18.268;2023-05-10T12:20:31;22.29;44.41
80676;SHT30;70041;46.088;18.268;2023-05-10T12:22:57;22.53;41.90
80676;SHT30;70041;46.088;18.268;2023-05-10T12:25:29;22.35;41.28
80676;SHT30;70041;46.088;18.268;2023-05-10T12:27:56;22.49;41.01
80676;SHT30;70041;46.088;18.268;2023-05-10T12:30:26;22.82;42.36
80676;SHT30;70041;46.088;18.268;2023-05-10T12:32:53;23.24;41.35
80676;SHT30;70041;46.088;18.268;2023-05-10T12:35:18;23.90;38.94
80676;SHT30;70041;46.088;18.268;2023-05-10T12:37:47;24.68;35.57
80676;SHT30;70041;46.088;18.268;2023-05-10T12:40:13;25.15;34.08
80676;SHT30;70041;46.088;18.268;2023-05-10T12:42:39;25.43;34.82
80676;SHT30;70041;46.088;18.268;2023-05-10T12:45:06;24.83;35.84
80676;SHT30;70041;46.088;18.268;2023-05-10T12:47:32;24.36;37.58
80676;SHT30;70041;46.088;18.268;2023-05-10T12:49:58;24.04;38.17
80676;SHT30;70041;46.088;18.268;2023-05-10T12:52:25;23.72;37.96
80676;SHT30;70041;46.088;18.268;2023-05-10T12:54:51;23.59;37.92
80676;SHT30;70041;46.088;18.268;2023-05-10T12:57:17;22.28;38.28
80676;SHT30;70041;46.088;18.268;2023-05-10T12:59:42;22.43;39.19
80676;SHT30;70041;46.088;18.268;2023-05-10T13:02:08;24.23;38.43
80676;SHT30;70041;46.088;18.268;2023-05-10T13:04:33;24.40;36.73
80676;SHT30;70041;46.088;18.268;2023-05-10T13:06:59;26.23;34.70
80676;SHT30;70041;46.088;18.268;2023-05-10T13:09:25;26.98;34.57
80676;SHT30;70041;46.088;18.268;2023-05-10T13:11:52;27.36;33.12
80676;SHT30;70041;46.088;18.268;2023-05-10T13:14:19;27.50;31.57
80676;SHT30;70041;46.088;18.268;2023-05-10T13:16:46;24.92;34.53
80676;SHT30;70041;46.088;18.268;2023-05-10T13:19:12;22.66;38.67
80676;SHT30;70041;46.088;18.268;2023-05-10T13:21:38;21.67;40.43
80676;SHT30;70041;46.088;18.268;2023-05-10T13:24:03;21.13;42.06
80676;SHT30;70041;46.088;18.268;2023-05-10T13:26:28;20.76;42.10
80676;SHT30;70041;46.088;18.268;2023-05-10T13:28:54;22.05;40.27
80676;SHT30;70041;46.088;18.268;2023-05-10T13:31:20;23.13;37.68
80676;SHT30;70041;46.088;18.268;2023-05-10T13:33:46;24.60;35.86
80676;SHT30;70041;46.088;18.268;2023-05-10T13:36:11;24.80;35.23
80676;SHT30;70041;46.088;18.268;2023-05-10T13:38:37;24.81;35.49
80676;SHT30;70041;46.088;18.268;2023-05-10T13:41:02;23.13;38.31
80676;SHT30;70041;46.088;18.268;2023-05-10T13:43:29;23.90;37.75
80676;SHT30;70041;46.088;18.268;2023-05-10T13:45:54;25.69;35.24
80676;SHT30;70041;46.088;18.268;2023-05-10T13:48:20;25.52;35.41
80676;SHT30;70041;46.088;18.268;2023-05-10T13:50:45;24.40;35.39
80676;SHT30;70041;46.088;18.268;2023-05-10T13:53:11;23.14;37.83
80676;SHT30;70041;46.088;18.268;2023-05-10T13:55:36;22.18;40.66
80676;SHT30;70041;46.088;18.268;2023-05-10T13:58:02;21.75;40.06
80676;SHT30;70041;46.088;18.268;2023-05-10T14:00:27;22.53;40.61
80676;SHT30;70041;46.088;18.268;2023-05-10T14:02:53;22.80;41.12
80676;SHT30;70041;46.088;18.268;2023-05-10T14:05:18;22.99;39.35
80676;SHT30;70041;46.088;18.268;2023-05-10T14:07:44;22.32;39.92
80676;SHT30;70041;46.088;18.268;2023-05-10T14:10:09;22.62;39.62
80676;SHT30;70041;46.088;18.268;2023-05-10T14:12:35;23.07;38.42
80676;SHT30;70041;46.088;18.268;2023-05-10T14:15:00;24.16;37.55
80676;SHT30;70041;46.088;18.268;2023-05-10T14:17:26;25.19;34.90
80676;SHT30;70041;46.088;18.268;2023-05-10T14:19:52;25.69;34.52
80676;SHT30;70041;46.088;18.268;2023-05-10T14:22:18;24.12;36.14
80676;SHT30;70041;46.088;18.268;2023-05-10T14:24:43;22.53;38.69
80676;SHT30;70041;46.088;18.268;2023-05-10T14:27:12;21.57;40.54
80676;SHT30;70041;46.088;18.268;2023-05-10T14:29:37;21.17;41.64
80676;SHT30;70041;46.088;18.268;2023-05-10T14:32:03;21.02;41.99
80676;SHT30;70041;46.088;18.268;2023-05-10T14:34:28;21.62;41.24
80676;SHT30;70041;46.088;18.268;2023-05-10T14:36:54;24.50;34.80
80676;SHT30;70041;46.088;18.268;2023-05-10T14:39:20;23.13;37.51
80676;SHT30;70041;46.088;18.268;2023-05-10T14:41:45;25.21;35.67
80676;SHT30;70041;46.088;18.268;2023-05-10T14:44:12;25.11;34.80
80676;SHT30;70041;46.088;18.268;2023-05-10T14:46:37;26.44;33.16
80676;SHT30;70041;46.088;18.268;2023-05-10T14:49:03;23.89;35.99
80676;SHT30;70041;46.088;18.268;2023-05-10T14:51:29;22.73;37.93
80676;SHT30;70041;46.088;18.268;2023-05-10T14:53:54;25.25;34.79
80676;SHT30;70041;46.088;18.268;2023-05-10T14:56:20;26.51;32.31
80676;SHT30;70041;46.088;18.268;2023-05-10T14:58:46;24.29;35.37
80676;SHT30;70041;46.088;18.268;2023-05-10T15:01:11;23.27;36.93
80676;SHT30;70041;46.088;18.268;2023-05-10T15:03:37;21.75;39.99
80676;SHT30;70041;46.088;18.268;2023-05-10T15:06:03;22.87;37.91
80676;SHT30;70041;46.088;18.268;2023-05-10T15:08:29;24.55;33.90
80676;SHT30;70041;46.088;18.268;2023-05-10T15:10:54;25.07;32.73
80676;SHT30;70041;46.088;18.268;2023-05-10T15:13:21;24.97;32.21
80676;SHT30;70041;46.088;18.268;2023-05-10T15:15:46;25.32;30.86
80676;SHT30;70041;46.088;18.268;2023-05-10T15:18:12;25.96;31.05
80676;SHT30;70041;46.088;18.268;2023-05-10T15:20:37;26.33;30.77
80676;SHT30;70041;46.088;18.268;2023-05-10T15:23:02;26.17;29.54
80676;SHT30;70041;46.088;18.268;2023-05-10T15:25:28;26.48;29.66
80676;SHT30;70041;46.088;18.268;2023-05-10T15:27:54;26.27;30.34
80676;SHT30;70041;46.088;18.268;2023-05-10T15:30:19;26.30;30.60
80676;SHT30;70041;46.088;18.268;2023-05-10T15:32:45;26.78;29.49
80676;SHT30;70041;46.088;18.268;2023-05-10T15:35:10;26.30;30.13
80676;SHT30;70041;46.088;18.268;2023-05-10T15:37:37;26.37;30.46
80676;SHT30;70041;46.088;18.268;2023-05-10T15:40:02;26.45;30.11
80676;SHT30;70041;46.088;18.268;2023-05-10T15:42:31;26.41;31.59
80676;SHT30;70041;46.088;18.268;2023-05-10T15:44:57;25.75;31.55
80676;SHT30;70041;46.088;18.268;2023-05-10T15:47:23;23.95;34.11
80676;SHT30;70041;46.088;18.268;2023-05-10T15:49:48;22.60;35.97
80676;SHT30;70041;46.088;18.268;2023-05-10T15:52:14;21.65;37.92